sensor_id;sensor_type;location;lat;lon;timestamp;P1;durP1;ratioP1;P2;durP2;ratioP2
57535;SDS011;43361;49.790;8.960;2023-02-12T00:07:19;18.67;;;10.50;;
57535;SDS011;43361;49.790;8.960;2023-02-12T00:17:20;18.58;;;9.35;;
57535;SDS011;43361;49.790;8.960;2023-02-12T00:27:21;17.45;;;9.38;;
57535;SDS011;43361;49.790;8.960;2023-02-12T00:37:22;15.88;;;8.80;;
57535;SDS011;43361;49.790;8.960;2023-02-12T00:47:24;16.67;;;8.43;;
57535;SDS011;43361;49.790;8.960;2023-02-12T00:57:24;15.27;;;8.90;;
57535;SDS011;43361;49.790;8.960;2023-02-12T01:07:26;14.65;;;8.02;;
57535;SDS011;43361;49.790;8.960;2023-02-12T01:17:26;14.05;;;8.18;;
57535;SDS011;43361;49.790;8.960;2023-02-12T01:27:28;15.02;;;8.38;;
57535;SDS011;43361;49.790;8.960;2023-02-12T01:37:28;15.63;;;7.95;;
57535;SDS011;43361;49.790;8.960;2023-02-12T01:47:30;15.82;;;7.90;;
57535;SDS011;43361;49.790;8.960;2023-02-12T01:57:31;12.27;;;7.43;;
57535;SDS011;43361;49.790;8.960;2023-02-12T02:07:33;12.00;;;6.88;;
57535;SDS011;43361;49.790;8.960;2023-02-12T02:17:38;11.95;;;6.60;;
57535;SDS011;43361;49.790;8.960;2023-02-12T02:27:42;13.15;;;7.20;;
57535;SDS011;43361;49.790;8.960;2023-02-12T02:37:48;12.32;;;6.63;;
57535;SDS011;43361;49.790;8.960;2023-02-12T02:47:52;10.93;;;6.43;;
57535;SDS011;43361;49.790;8.960;2023-02-12T02:57:56;9.18;;;6.00;;
57535;SDS011;43361;49.790;8.960;2023-02-12T03:07:58;10.73;;;6.20;;
57535;SDS011;43361;49.790;8.960;2023-02-12T03:18:02;9.00;;;5.57;;
57535;SDS011;43361;49.790;8.960;2023-02-12T03:28:05;11.52;;;5.78;;
57535;SDS011;43361;49.790;8.960;2023-02-12T03:38:08;8.27;;;4.93;;
57535;SDS011;43361;49.790;8.960;2023-02-12T03:48:16;7.75;;;5.25;;
57535;SDS011;43361;49.790;8.960;2023-02-12T03:58:19;8.50;;;5.10;;
57535;SDS011;43361;49.790;8.960;2023-02-12T04:08:20;9.18;;;5.28;;
57535;SDS011;43361;49.790;8.960;2023-02-12T04:18:23;8.10;;;4.75;;
57535;SDS011;43361;49.790;8.960;2023-02-12T04:28:32;7.65;;;4.78;;
57535;SDS011;43361;49.790;8.960;2023-02-12T04:38:37;8.38;;;4.90;;
57535;SDS011;43361;49.790;8.960;2023-02-12T04:48:42;9.40;;;4.70;;
57535;SDS011;43361;49.790;8.960;2023-02-12T04:58:47;6.60;;;4.47;;
57535;SDS011;43361;49.790;8.960;2023-02-12T05:08:48;7.25;;;4.80;;
57535;SDS011;43361;49.790;8.960;2023-02-12T05:18:50;7.07;;;4.53;;
57535;SDS011;43361;49.790;8.960;2023-02-12T05:28:50;6.22;;;4.20;;
57535;SDS011;43361;49.790;8.960;2023-02-12T05:38:55;7.22;;;4.55;;
57535;SDS011;43361;49.790;8.960;2023-02-12T05:48:55;6.07;;;4.25;;
57535;SDS011;43361;49.790;8.960;2023-02-12T05:58:58;6.05;;;3.50;;
57535;SDS011;43361;49.790;8.960;2023-02-12T06:08:59;5.18;;;3.63;;
57535;SDS011;43361;49.790;8.960;2023-02-12T06:19:02;6.13;;;3.45;;
57535;SDS011;43361;49.790;8.960;2023-02-12T06:29:03;5.40;;;3.47;;
57535;SDS011;43361;49.790;8.960;2023-02-12T06:39:05;5.70;;;3.17;;
57535;SDS011;43361;49.790;8.960;2023-02-12T06:49:06;7.25;;;3.45;;
57535;SDS011;43361;49.790;8.960;2023-02-12T06:59:09;3.80;;;3.05;;
57535;SDS011;43361;49.790;8.960;2023-02-12T07:09:10;6.72;;;3.30;;
57535;SDS011;43361;49.790;8.960;2023-02-12T07:19:12;6.10;;;3.45;;
57535;SDS011;43361;49.790;8.960;2023-02-12T07:29:12;7.90;;;3.33;;
57535;SDS011;43361;49.790;8.960;2023-02-12T07:39:14;15.93;;;4.35;;
57535;SDS011;43361;49.790;8.960;2023-02-12T07:49:15;16.58;;;5.00;;
57535;SDS011;43361;49.790;8.960;2023-02-12T07:59:18;8.43;;;4.10;;
57535;SDS011;43361;49.790;8.960;2023-02-12T08:09:19;9.18;;;4.10;;
57535;SDS011;43361;49.790;8.960;2023-02-12T08:19:21;15.30;;;4.75;;
57535;SDS011;43361;49.790;8.960;2023-02-12T08:29:22;22.02;;;7.35;;
57535;SDS011;43361;49.790;8.960;2023-02-12T08:39:26;31.02;;;7.95;;
57535;SDS011;43361;49.790;8.960;2023-02-12T08:49:27;179.95;;;76.75;;
57535;SDS011;43361;49.790;8.960;2023-02-12T08:59:29;261.65;;;102.82;;
57535;SDS011;43361;49.790;8.960;2023-02-12T09:09:29;375.63;;;150.45;;
57535;SDS011;43361;49.790;8.960;2023-02-12T09:19:31;330.45;;;131.43;;
57535;SDS011;43361;49.790;8.960;2023-02-12T09:29:32;247.07;;;99.43;;
57535;SDS011;43361;49.790;8.960;2023-02-12T09:39:34;215.05;;;88.47;;
57535;SDS011;43361;49.790;8.960;2023-02-12T09:49:41;190.20;;;81.03;;
57535;SDS011;43361;49.790;8.960;2023-02-12T09:59:45;170.67;;;72.97;;
57535;SDS011;43361;49.790;8.960;2023-02-12T10:09:56;155.35;;;65.93;;
57535;SDS011;43361;49.790;8.960;2023-02-12T10:20:13;137.45;;;62.72;;
57535;SDS011;43361;49.790;8.960;2023-02-12T10:30:19;127.45;;;56.20;;
57535;SDS011;43361;49.790;8.960;2023-02-12T10:40:22;126.35;;;57.28;;
57535;SDS011;43361;49.790;8.960;2023-02-12T10:50:24;120.57;;;53.45;;
57535;SDS011;43361;49.790;8.960;2023-02-12T11:00:29;113.22;;;53.65;;
57535;SDS011;43361;49.790;8.960;2023-02-12T11:10:31;107.18;;;51.40;;
57535;SDS011;43361;49.790;8.960;2023-02-12T11:20:35;104.65;;;49.90;;
57535;SDS011;43361;49.790;8.960;2023-02-12T11:30:40;106.88;;;47.33;;
57535;SDS011;43361;49.790;8.960;2023-02-12T11:40:49;76.85;;;38.97;;
57535;SDS011;43361;49.790;8.960;2023-02-12T11:50:51;84.63;;;41.97;;
57535;SDS011;43361;49.790;8.960;2023-02-12T12:00:55;204.68;;;115.32;;
57535;SDS011;43361;49.790;8.960;2023-02-12T12:10:58;129.85;;;69.97;;
57535;SDS011;43361;49.790;8.960;2023-02-12T12:21:02;137.27;;;75.25;;
57535;SDS011;43361;49.790;8.960;2023-02-12T12:31:07;84.00;;;46.53;;
57535;SDS011;43361;49.790;8.960;2023-02-12T12:41:12;53.92;;;31.30;;
57535;SDS011;43361;49.790;8.960;2023-02-12T12:51:21;56.10;;;30.50;;
57535;SDS011;43361;49.790;8.960;2023-02-12T13:01:33;46.85;;;25.60;;
57535;SDS011;43361;49.790;8.960;2023-02-12T13:11:38;42.78;;;24.13;;
57535;SDS011;43361;49.790;8.960;2023-02-12T13:21:50;39.50;;;21.98;;
57535;SDS011;43361;49.790;8.960;2023-02-12T13:31:54;40.90;;;19.60;;
57535;SDS011;43361;49.790;8.960;2023-02-12T13:42:02;34.42;;;18.25;;
57535;SDS011;43361;49.790;8.960;2023-02-12T13:52:09;29.63;;;15.82;;
57535;SDS011;43361;49.790;8.960;2023-02-12T14:02:28;28.60;;;15.50;;
57535;SDS011;43361;49.790;8.960;2023-02-12T14:12:39;23.45;;;13.85;;
57535;SDS011;43361;49.790;8.960;2023-02-12T14:22:57;24.65;;;12.48;;
57535;SDS011;43361;49.790;8.960;2023-02-12T14:32:59;23.30;;;12.93;;
57535;SDS011;43361;49.790;8.960;2023-02-12T14:43:29;19.38;;;10.88;;
57535;SDS011;43361;49.790;8.960;2023-02-12T14:53:30;17.92;;;10.02;;
57535;SDS011;43361;49.790;8.960;2023-02-12T15:03:37;15.07;;;9.32;;
57535;SDS011;43361;49.790;8.960;2023-02-12T15:13:44;17.30;;;9.50;;
57535;SDS011;43361;49.790;8.960;2023-02-12T15:23:48;15.60;;;8.35;;
57535;SDS011;43361;49.790;8.960;2023-02-12T15:33:57;14.77;;;8.00;;
57535;SDS011;43361;49.790;8.960;2023-02-12T15:43:59;12.65;;;7.32;;
57535;SDS011;43361;49.790;8.960;2023-02-12T15:54:00;12.95;;;6.72;;
57535;SDS011;43361;49.790;8.960;2023-02-12T16:04:05;12.75;;;6.47;;
57535;SDS011;43361;49.790;8.960;2023-02-12T16:14:06;15.93;;;6.50;;
57535;SDS011;43361;49.790;8.960;2023-02-12T16:24:17;12.13;;;6.47;;
57535;SDS011;43361;49.790;8.960;2023-02-12T16:34:26;15.30;;;6.13;;
57535;SDS011;43361;49.790;8.960;2023-02-12T16:44:28;14.90;;;6.25;;
57535;SDS011;43361;49.790;8.960;2023-02-12T16:54:31;12.75;;;5.78;;
57535;SDS011;43361;49.790;8.960;2023-02-12T17:04:33;11.02;;;6.07;;
57535;SDS011;43361;49.790;8.960;2023-02-12T17:14:33;12.98;;;5.55;;
57535;SDS011;43361;49.790;8.960;2023-02-12T17:24:35;16.13;;;5.55;;
57535;SDS011;43361;49.790;8.960;2023-02-12T17:34:36;14.15;;;5.03;;
57535;SDS011;43361;49.790;8.960;2023-02-12T17:44:38;7.78;;;4.90;;
57535;SDS011;43361;49.790;8.960;2023-02-12T17:54:39;11.25;;;5.22;;
57535;SDS011;43361;49.790;8.960;2023-02-12T18:04:40;15.10;;;4.88;;
57535;SDS011;43361;49.790;8.960;2023-02-12T18:14:41;9.02;;;4.60;;
57535;SDS011;43361;49.790;8.960;2023-02-12T18:24:44;10.23;;;4.40;;
57535;SDS011;43361;49.790;8.960;2023-02-12T18:34:45;10.52;;;4.20;;
57535;SDS011;43361;49.790;8.960;2023-02-12T18:44:46;6.35;;;3.75;;
57535;SDS011;43361;49.790;8.960;2023-02-12T18:54:48;7.38;;;4.20;;
57535;SDS011;43361;49.790;8.960;2023-02-12T19:04:50;7.53;;;4.03;;
57535;SDS011;43361;49.790;8.960;2023-02-12T19:14:50;7.97;;;3.63;;
57535;SDS011;43361;49.790;8.960;2023-02-12T19:24:52;7.75;;;4.10;;
57535;SDS011;43361;49.790;8.960;2023-02-12T19:34:53;9.00;;;3.88;;
57535;SDS011;43361;49.790;8.960;2023-02-12T19:44:54;5.97;;;3.55;;
57535;SDS011;43361;49.790;8.960;2023-02-12T19:54:55;7.10;;;3.42;;
57535;SDS011;43361;49.790;8.960;2023-02-12T20:04:57;9.52;;;3.88;;
57535;SDS011;43361;49.790;8.960;2023-02-12T20:14:57;4.78;;;3.22;;
57535;SDS011;43361;49.790;8.960;2023-02-12T20:25:03;4.75;;;3.20;;
57535;SDS011;43361;49.790;8.960;2023-02-12T20:35:03;5.80;;;3.28;;
57535;SDS011;43361;49.790;8.960;2023-02-12T20:45:05;6.40;;;3.10;;
57535;SDS011;43361;49.790;8.960;2023-02-12T20:55:06;5.57;;;3.22;;
57535;SDS011;43361;49.790;8.960;2023-02-12T21:05:08;5.47;;;2.80;;
57535;SDS011;43361;49.790;8.960;2023-02-12T21:15:09;4.35;;;2.80;;
57535;SDS011;43361;49.790;8.960;2023-02-12T21:25:10;6.07;;;2.80;;
57535;SDS011;43361;49.790;8.960;2023-02-12T21:35:11;4.82;;;2.88;;
57535;SDS011;43361;49.790;8.960;2023-02-12T21:45:12;3.60;;;2.30;;
57535;SDS011;43361;49.790;8.960;2023-02-12T21:55:13;4.88;;;2.92;;
57535;SDS011;43361;49.790;8.960;2023-02-12T22:05:15;4.35;;;2.40;;
57535;SDS011;43361;49.790;8.960;2023-02-12T22:15:15;3.85;;;2.40;;
57535;SDS011;43361;49.790;8.960;2023-02-12T22:25:17;3.60;;;2.40;;
57535;SDS011;43361;49.790;8.960;2023-02-12T22:35:17;3.78;;;2.50;;
57535;SDS011;43361;49.790;8.960;2023-02-12T22:45:20;3.65;;;2.25;;
57535;SDS011;43361;49.790;8.960;2023-02-12T22:55:20;4.10;;;2.13;;
57535;SDS011;43361;49.790;8.960;2023-02-12T23:05:22;3.10;;;2.08;;
57535;SDS011;43361;49.790;8.960;2023-02-12T23:15:23;3.30;;;2.20;;
57535;SDS011;43361;49.790;8.960;2023-02-12T23:25:24;3.80;;;2.22;;
57535;SDS011;43361;49.790;8.960;2023-02-12T23:35:25;6.82;;;2.20;;
57535;SDS011;43361;49.790;8.960;2023-02-12T23:45:27;6.60;;;2.88;;
57535;SDS011;43361;49.790;8.960;2023-02-12T23:55:27;3.05;;;2.03;;
